createdAt,value
2023-11-03T00:01:01.103Z,87.06
2023-11-03T00:02:05.087Z,86.15
2023-11-03T00:03:09.709Z,86.38
2023-11-03T00:04:12.921Z,86.15
2023-11-03T00:05:16.031Z,86.77
2023-11-03T00:06:19.084Z,86.61
2023-11-03T00:07:21.870Z,85.47
2023-11-03T00:08:25.954Z,85.81
2023-11-03T00:09:31.876Z,86.03
2023-11-03T00:10:36.215Z,85.64
2023-11-03T00:11:39.434Z,85.71
2023-11-03T00:12:42.476Z,86.15
2023-11-03T00:13:45.742Z,86.17
2023-11-03T00:14:48.732Z,86.41
2023-11-03T00:15:51.747Z,85.52
2023-11-03T00:16:55.157Z,85.56
2023-11-03T00:17:58.846Z,84.93
2023-11-03T00:19:05.803Z,85.30
2023-11-03T00:20:09.280Z,85.39
2023-11-03T00:21:12.294Z,85.18
2023-11-03T00:22:14.997Z,85.16
2023-11-03T00:23:17.720Z,85.33
2023-11-03T00:24:20.539Z,84.54
2023-11-03T00:25:23.411Z,84.43
2023-11-03T00:26:26.849Z,84.69
2023-11-03T00:27:29.848Z,85.31
2023-11-03T00:28:32.739Z,85.12
2023-11-03T00:29:35.967Z,84.73
2023-11-03T00:30:39.699Z,85.02
2023-11-03T00:31:46.513Z,85.42
2023-11-03T00:32:49.421Z,85.94
2023-11-03T00:33:52.736Z,85.53
2023-11-03T00:34:55.532Z,85.44
2023-11-03T00:35:58.744Z,85.75
2023-11-03T00:37:01.589Z,85.50
2023-11-03T00:38:04.439Z,86.09
2023-11-03T00:39:10.551Z,86.39
2023-11-03T00:40:16.189Z,86.69
2023-11-03T00:41:19.238Z,85.81
2023-11-03T00:42:22.611Z,85.88
2023-11-03T00:43:26.172Z,86.33
2023-11-03T00:44:29.382Z,86.50
2023-11-03T00:45:32.738Z,86.51
2023-11-03T00:46:40.002Z,85.96
2023-11-03T00:47:43.106Z,86.24
2023-11-03T00:48:46.246Z,86.31
2023-11-03T00:49:49.568Z,86.30
2023-11-03T00:50:52.242Z,85.40
2023-11-03T00:51:55.470Z,85.59
2023-11-03T00:52:58.596Z,85.59
2023-11-03T00:54:06.157Z,85.88
2023-11-03T00:55:10.442Z,85.80
2023-11-03T00:56:15.328Z,85.44
2023-11-03T00:57:18.572Z,85.48
2023-11-03T00:58:21.495Z,85.35
2023-11-03T00:59:24.639Z,85.62
2023-11-03T01:00:29.711Z,85.40
2023-11-03T01:01:33.210Z,85.39
2023-11-03T01:02:36.499Z,84.97
2023-11-03T01:03:39.861Z,84.82
2023-11-03T01:04:43.069Z,84.83
2023-11-03T01:05:46.211Z,85.24
2023-11-03T01:06:50.299Z,85.04
2023-11-03T01:07:54.175Z,84.81
2023-11-03T01:08:57.038Z,84.62
2023-11-03T01:10:00.000Z,84.26
2023-11-03T01:11:04.142Z,84.07
2023-11-03T01:12:08.410Z,83.91
2023-11-03T01:13:16.077Z,83.54
2023-11-03T01:14:19.749Z,83.50
2023-11-03T01:15:22.829Z,83.49
2023-11-03T01:16:26.671Z,83.44
2023-11-03T01:17:30.009Z,83.11
2023-11-03T01:18:33.205Z,83.43
2023-11-03T01:19:36.493Z,83.36
2023-11-03T01:20:39.669Z,83.59
2023-11-03T01:21:44.803Z,83.28
2023-11-03T01:22:51.154Z,83.68
2023-11-03T01:23:54.328Z,83.89
2023-11-03T01:24:57.471Z,83.22
2023-11-03T01:26:01.053Z,83.52
2023-11-03T01:27:05.512Z,83.99
2023-11-03T01:28:08.294Z,83.77
2023-11-03T01:29:13.968Z,83.80
2023-11-03T01:30:19.047Z,83.62
2023-11-03T01:31:23.223Z,83.87
2023-11-03T01:32:26.538Z,84.34
2023-11-03T01:33:29.448Z,84.40
2023-11-03T01:34:32.866Z,84.54
2023-11-03T01:35:37.883Z,84.13
2023-11-03T01:36:41.526Z,84.35
2023-11-03T01:37:46.399Z,84.42
2023-11-03T01:38:49.832Z,84.23
2023-11-03T01:39:52.871Z,84.38
2023-11-03T01:40:55.979Z,84.18
2023-11-03T01:42:00.229Z,84.01
2023-11-03T01:43:03.008Z,84.21
2023-11-03T01:44:08.190Z,84.21
2023-11-03T01:45:11.803Z,83.95
2023-11-03T01:46:14.626Z,84.41
2023-11-03T01:47:18.058Z,84.44
2023-11-03T01:48:21.770Z,84.41
2023-11-03T01:49:25.445Z,84.67
2023-11-03T01:50:29.141Z,84.40
2023-11-03T01:51:32.359Z,84.14
2023-11-03T01:52:38.011Z,83.90
2023-11-03T01:53:40.925Z,84.24
2023-11-03T01:54:44.233Z,84.75
2023-11-03T01:55:48.410Z,84.54
2023-11-03T01:56:52.045Z,85.25
2023-11-03T01:57:55.147Z,84.49
2023-11-03T01:59:03.693Z,84.37
2023-11-03T02:00:08.580Z,84.32
2023-11-03T02:01:11.859Z,84.32
2023-11-03T02:02:16.323Z,84.65
2023-11-03T02:03:19.289Z,84.54
2023-11-03T02:04:22.199Z,84.62
2023-11-03T02:05:25.566Z,84.95
2023-11-03T02:06:28.474Z,84.80
2023-11-03T02:07:31.631Z,84.94
2023-11-03T02:08:34.725Z,84.99
2023-11-03T02:09:37.974Z,85.16
2023-11-03T02:10:43.680Z,85.12
2023-11-03T02:11:48.924Z,84.87
2023-11-03T02:12:51.924Z,84.61
2023-11-03T02:13:57.222Z,84.69
2023-11-03T02:15:00.304Z,84.84
2023-11-03T02:16:04.427Z,84.86
2023-11-03T02:17:07.821Z,85.04
2023-11-03T02:18:12.186Z,85.19
2023-11-03T02:19:16.772Z,84.87
2023-11-03T02:20:22.452Z,84.56
2023-11-03T02:21:25.186Z,84.82
2023-11-03T02:22:28.244Z,84.89
2023-11-03T02:23:34.556Z,84.63
2023-11-03T02:24:37.646Z,84.13
2023-11-03T02:25:40.565Z,84.63
2023-11-03T02:26:43.679Z,85.04
2023-11-03T02:27:46.828Z,85.12
2023-11-03T02:28:50.731Z,84.97
2023-11-03T02:29:53.947Z,85.29
2023-11-03T02:30:56.939Z,85.38
2023-11-03T02:32:00.083Z,85.41
2023-11-03T02:33:02.927Z,85.46
2023-11-03T02:34:05.959Z,85.62
2023-11-03T02:35:11.025Z,85.87
2023-11-03T02:36:14.617Z,85.79
2023-11-03T02:37:17.740Z,85.66
2023-11-03T02:38:20.842Z,85.76
2023-11-03T02:39:23.993Z,85.69
2023-11-03T02:40:26.952Z,85.38
2023-11-03T02:41:29.934Z,85.93
2023-11-03T02:42:33.084Z,85.78
2023-11-03T02:43:36.165Z,86.19
2023-11-03T02:44:38.821Z,86.14
2023-11-03T02:45:41.982Z,85.95
2023-11-03T02:46:48.129Z,85.45
2023-11-03T02:47:50.988Z,85.39
2023-11-03T02:48:55.057Z,85.99
2023-11-03T02:49:58.070Z,85.34
2023-11-03T02:51:02.120Z,85.58
2023-11-03T02:52:05.736Z,85.53
2023-11-03T02:53:09.176Z,85.66
2023-11-03T02:54:12.635Z,85.60
2023-11-03T02:55:15.774Z,85.48
2023-11-03T02:56:24.341Z,85.75
2023-11-03T02:57:27.353Z,85.21
2023-11-03T02:58:36.226Z,85.18
2023-11-03T02:59:39.290Z,85.25
2023-11-03T03:00:42.718Z,85.32
2023-11-03T03:01:45.931Z,85.53
2023-11-03T03:02:48.847Z,85.66
2023-11-03T03:03:51.690Z,85.51
2023-11-03T03:04:54.551Z,85.73
2023-11-03T03:05:57.605Z,86.00
2023-11-03T03:07:01.196Z,85.70
2023-11-03T03:08:07.108Z,85.92
2023-11-03T03:09:11.709Z,86.52
2023-11-03T03:10:15.075Z,86.59
2023-11-03T03:11:18.335Z,86.42
2023-11-03T03:12:21.066Z,86.60
2023-11-03T03:13:23.834Z,86.96
2023-11-03T03:14:26.988Z,86.99
2023-11-03T03:15:29.734Z,86.74
2023-11-03T03:16:32.648Z,86.49
2023-11-03T03:17:35.616Z,86.52
2023-11-03T03:18:38.360Z,86.94
2023-11-03T03:19:41.310Z,86.86
2023-11-03T03:20:44.092Z,86.71
2023-11-03T03:21:46.799Z,86.63
2023-11-03T03:22:49.769Z,86.74
2023-11-03T03:23:52.554Z,86.74
2023-11-03T03:24:55.764Z,86.51
2023-11-03T03:25:58.970Z,86.63
2023-11-03T03:27:01.787Z,86.84
2023-11-03T03:28:05.096Z,87.03
2023-11-03T03:29:08.410Z,86.69
2023-11-03T03:30:11.939Z,86.56
2023-11-03T03:31:15.036Z,86.86
2023-11-03T03:32:18.128Z,87.08
2023-11-03T03:33:21.317Z,86.74
2023-11-03T03:34:24.230Z,87.11
2023-11-03T03:35:27.328Z,87.08
2023-11-03T03:36:30.402Z,87.04
2023-11-03T03:37:33.264Z,87.24
2023-11-03T03:38:36.914Z,87.10
2023-11-03T03:39:40.109Z,86.95
2023-11-03T03:40:43.121Z,86.84
2023-11-03T03:41:51.214Z,87.02
2023-11-03T03:42:54.285Z,87.28
2023-11-03T03:43:57.938Z,87.55
2023-11-03T03:45:00.742Z,86.51
2023-11-03T03:46:04.508Z,86.93
2023-11-03T03:47:09.089Z,87.49
2023-11-03T03:48:12.204Z,87.17
2023-11-03T03:49:15.554Z,86.77
2023-11-03T03:50:18.604Z,86.78
2023-11-03T03:51:21.789Z,86.81
2023-11-03T03:52:24.884Z,86.81
2023-11-03T03:53:27.918Z,86.81
2023-11-03T03:54:31.449Z,86.17
2023-11-03T03:55:34.483Z,85.99
2023-11-03T03:56:37.703Z,85.92
2023-11-03T03:57:40.718Z,85.73
2023-11-03T03:58:43.857Z,86.02
2023-11-03T03:59:46.568Z,86.18
2023-11-03T04:00:49.295Z,86.02
2023-11-03T04:01:51.948Z,86.00
2023-11-03T04:02:55.001Z,86.49
2023-11-03T04:03:58.411Z,86.30
2023-11-03T04:05:03.270Z,86.01
2023-11-03T04:06:06.524Z,85.51
2023-11-03T04:07:09.727Z,85.69
2023-11-03T04:08:12.776Z,85.62
2023-11-03T04:09:15.793Z,85.66
2023-11-03T04:10:18.839Z,86.04
2023-11-03T04:11:21.669Z,86.16
2023-11-03T04:12:24.823Z,86.28
2023-11-03T04:13:27.744Z,85.61
2023-11-03T04:14:30.567Z,85.30
2023-11-03T04:15:33.605Z,85.80
2023-11-03T04:16:37.372Z,85.73
2023-11-03T04:17:40.345Z,85.67
2023-11-03T04:18:43.551Z,85.78
2023-11-03T04:19:46.588Z,85.96
2023-11-03T04:20:49.590Z,86.22
2023-11-03T04:21:52.309Z,85.97
2023-11-03T04:22:56.153Z,85.38
2023-11-03T04:23:59.458Z,85.29
2023-11-03T04:25:02.753Z,85.28
2023-11-03T04:26:05.672Z,84.99
2023-11-03T04:27:08.383Z,85.48
2023-11-03T04:28:11.546Z,85.34
2023-11-03T04:29:15.320Z,85.69
2023-11-03T04:30:18.056Z,85.92
2023-11-03T04:31:21.473Z,85.91
2023-11-03T04:32:24.515Z,85.86
2023-11-03T04:33:27.372Z,86.12
2023-11-03T04:34:30.253Z,86.17
2023-11-03T04:35:33.391Z,85.99
2023-11-03T04:36:36.843Z,85.73
2023-11-03T04:37:39.800Z,85.74
2023-11-03T04:38:42.911Z,86.24
2023-11-03T04:39:46.041Z,86.26
2023-11-03T04:40:49.068Z,86.33
2023-11-03T04:41:51.884Z,86.51
2023-11-03T04:42:54.942Z,86.49
2023-11-03T04:43:57.867Z,86.77
2023-11-03T04:45:00.518Z,86.43
2023-11-03T04:46:04.683Z,86.41
2023-11-03T04:47:08.191Z,86.65
2023-11-03T04:48:10.958Z,86.35
2023-11-03T04:49:13.772Z,86.55
2023-11-03T04:50:18.465Z,86.81
2023-11-03T04:51:21.576Z,87.00
2023-11-03T04:52:24.476Z,86.50
2023-11-03T04:53:27.309Z,86.54
2023-11-03T04:54:30.342Z,87.10
2023-11-03T04:55:33.107Z,87.49
2023-11-03T04:56:36.206Z,86.73
2023-11-03T04:57:41.359Z,86.79
2023-11-03T04:58:44.388Z,87.06
2023-11-03T04:59:47.417Z,87.31
2023-11-03T05:00:50.268Z,87.77
2023-11-03T05:01:56.124Z,88.02
2023-11-03T05:02:59.248Z,88.03
2023-11-03T05:04:02.494Z,87.89
2023-11-03T05:05:06.222Z,87.69
2023-11-03T05:06:09.647Z,87.69
2023-11-03T05:07:13.078Z,87.53
2023-11-03T05:08:15.838Z,87.41
2023-11-03T05:09:19.309Z,87.44
2023-11-03T05:10:22.036Z,87.40
2023-11-03T05:11:24.822Z,87.58
2023-11-03T05:12:27.628Z,87.47
2023-11-03T05:13:30.850Z,87.31
2023-11-03T05:14:37.406Z,87.70
2023-11-03T05:15:40.852Z,87.61
2023-11-03T05:16:43.884Z,87.47
2023-11-03T05:17:47.949Z,87.84
2023-11-03T05:18:51.010Z,87.56
2023-11-03T05:19:54.315Z,87.44
2023-11-03T05:20:57.332Z,87.50
2023-11-03T05:22:00.488Z,87.43
2023-11-03T05:23:03.569Z,87.74
2023-11-03T05:24:07.134Z,87.56
2023-11-03T05:25:10.076Z,87.41
2023-11-03T05:26:15.920Z,87.35
2023-11-03T05:27:19.408Z,87.15
2023-11-03T05:28:22.974Z,87.17
2023-11-03T05:29:28.069Z,86.89
2023-11-03T05:30:31.466Z,86.98
2023-11-03T05:31:34.455Z,87.47
2023-11-03T05:32:37.612Z,87.27
2023-11-03T05:33:40.570Z,87.17
2023-11-03T05:34:43.549Z,86.93
2023-11-03T05:35:46.540Z,87.14
2023-11-03T05:36:49.385Z,87.23
2023-11-03T05:37:52.985Z,87.32
2023-11-03T05:38:55.871Z,87.23
2023-11-03T05:39:59.016Z,87.42
2023-11-03T05:41:01.800Z,87.12
2023-11-03T05:42:05.984Z,86.76
2023-11-03T05:43:08.874Z,86.50
2023-11-03T05:44:12.079Z,86.62
2023-11-03T05:45:15.309Z,86.77
2023-11-03T05:46:18.685Z,86.83
2023-11-03T05:47:21.726Z,86.49
2023-11-03T05:48:24.473Z,86.86
2023-11-03T05:49:27.449Z,86.83
2023-11-03T05:50:31.820Z,86.65
2023-11-03T05:51:35.071Z,86.90
2023-11-03T05:52:37.759Z,86.95
2023-11-03T05:53:40.606Z,87.04
2023-11-03T05:54:43.310Z,87.21
2023-11-03T05:55:46.398Z,87.15
2023-11-03T05:56:49.921Z,87.30
2023-11-03T05:57:53.104Z,87.21
2023-11-03T05:58:56.111Z,87.46
2023-11-03T05:59:59.011Z,87.30
2023-11-03T06:01:01.781Z,87.19
2023-11-03T06:02:04.537Z,87.26
2023-11-03T06:03:07.729Z,87.27
2023-11-03T06:04:12.681Z,87.20
2023-11-03T06:05:17.917Z,87.27
2023-11-03T06:06:21.053Z,87.08
2023-11-03T06:07:23.848Z,87.25
2023-11-03T06:08:27.575Z,87.46
2023-11-03T06:09:30.453Z,87.18
2023-11-03T06:10:33.264Z,86.94
2023-11-03T06:11:37.636Z,86.90
2023-11-03T06:12:40.400Z,86.99
2023-11-03T06:13:43.472Z,87.36
2023-11-03T06:14:46.291Z,87.23
2023-11-03T06:15:49.516Z,86.86
2023-11-03T06:16:52.792Z,86.50
2023-11-03T06:17:57.211Z,86.42
2023-11-03T06:19:00.332Z,86.35
2023-11-03T06:20:03.693Z,86.75
2023-11-03T06:21:07.402Z,86.47
2023-11-03T06:22:11.410Z,86.40
2023-11-03T06:23:14.187Z,86.41
2023-11-03T06:24:16.984Z,86.52
2023-11-03T06:25:20.145Z,86.63
2023-11-03T06:26:23.179Z,86.58
2023-11-03T06:27:26.624Z,86.19
2023-11-03T06:28:29.595Z,86.32
2023-11-03T06:29:32.616Z,86.40
2023-11-03T06:30:35.534Z,86.73
2023-11-03T06:31:38.531Z,86.57
2023-11-03T06:32:42.417Z,86.42
2023-11-03T06:33:46.010Z,86.22
2023-11-03T06:34:49.323Z,86.45
2023-11-03T06:35:52.151Z,86.46
2023-11-03T06:36:54.913Z,86.18
2023-11-03T06:37:58.047Z,86.42
2023-11-03T06:39:00.831Z,86.46
2023-11-03T06:40:04.233Z,86.38
2023-11-03T06:41:10.556Z,86.21
2023-11-03T06:42:13.550Z,86.55
2023-11-03T06:43:16.959Z,86.37
2023-11-03T06:44:19.835Z,86.38
2023-11-03T06:45:23.339Z,85.98
2023-11-03T06:46:26.269Z,86.32
2023-11-03T06:47:29.236Z,86.06
2023-11-03T06:48:32.204Z,86.41
2023-11-03T06:49:35.417Z,87.41
2023-11-03T06:50:40.439Z,88.09
2023-11-03T06:51:47.495Z,88.46
2023-11-03T06:52:51.862Z,88.94
2023-11-03T06:53:54.879Z,89.27
2023-11-03T06:54:58.513Z,90.27
2023-11-03T06:56:01.723Z,90.01
2023-11-03T06:57:05.197Z,90.17
2023-11-03T06:58:08.329Z,90.96
2023-11-03T06:59:11.581Z,91.12
2023-11-03T07:00:15.280Z,91.05
2023-11-03T07:01:18.050Z,91.72
2023-11-03T07:02:21.223Z,92.72
2023-11-03T07:03:24.236Z,93.75
2023-11-03T07:04:27.443Z,93.04
2023-11-03T07:05:31.836Z,92.89
2023-11-03T07:06:35.605Z,93.48
2023-11-03T07:07:38.908Z,93.58
2023-11-03T07:08:41.709Z,94.13
2023-11-03T07:09:44.338Z,95.17
2023-11-03T07:10:47.019Z,96.69
2023-11-03T07:11:49.718Z,97.22
2023-11-03T07:12:52.623Z,97.31
2023-11-03T07:13:55.470Z,97.80
2023-11-03T07:14:58.472Z,97.99
2023-11-03T07:16:05.557Z,99.60
2023-11-03T07:17:09.206Z,98.83
2023-11-03T07:18:13.449Z,100.00
2023-11-03T07:19:16.434Z,98.93
2023-11-03T07:20:19.529Z,100.00
2023-11-03T07:21:22.495Z,100.00
2023-11-03T07:22:26.038Z,100.00
2023-11-03T07:23:28.832Z,100.00
2023-11-03T07:24:32.043Z,100.00
2023-11-03T07:25:35.026Z,100.00
2023-11-03T07:26:38.156Z,100.00
2023-11-03T07:27:41.170Z,100.00
2023-11-03T07:28:47.095Z,100.00
2023-11-03T07:29:50.167Z,100.00
2023-11-03T07:30:53.102Z,100.00
2023-11-03T07:31:56.065Z,100.00
2023-11-03T07:32:59.201Z,100.00
2023-11-03T07:34:03.271Z,100.00
2023-11-03T07:35:07.803Z,100.00
2023-11-03T07:36:12.001Z,100.00
2023-11-03T07:37:15.206Z,100.00
2023-11-03T07:38:21.546Z,100.00
2023-11-03T07:39:26.641Z,100.00
2023-11-03T07:40:30.184Z,100.00
2023-11-03T07:41:34.768Z,100.00
2023-11-03T07:42:37.787Z,100.00
2023-11-03T07:43:41.033Z,100.00
2023-11-03T07:44:44.122Z,100.00
2023-11-03T07:45:47.413Z,100.00
2023-11-03T07:46:50.605Z,100.00
2023-11-03T07:47:53.869Z,100.00
2023-11-03T07:49:03.483Z,100.00
2023-11-03T07:50:07.249Z,100.00
2023-11-03T07:51:10.146Z,100.00
2023-11-03T07:52:12.862Z,100.00
2023-11-03T07:53:15.603Z,100.00
2023-11-03T07:54:20.834Z,100.00
2023-11-03T07:55:24.013Z,100.00
2023-11-03T07:56:35.382Z,100.00
2023-11-03T07:57:40.123Z,100.00
2023-11-03T07:58:43.054Z,100.00
2023-11-03T07:59:45.886Z,100.00
2023-11-03T08:00:51.523Z,100.00
2023-11-03T08:01:54.481Z,100.00
2023-11-03T08:02:58.106Z,100.00
2023-11-03T08:04:01.215Z,100.00
2023-11-03T08:05:05.425Z,100.00
2023-11-03T08:06:08.787Z,100.00
2023-11-03T08:07:11.827Z,100.00
2023-11-03T08:08:15.644Z,100.00
2023-11-03T08:09:19.012Z,100.00
2023-11-03T08:10:22.877Z,100.00
2023-11-03T08:11:25.695Z,100.00
2023-11-03T08:12:28.702Z,100.00
2023-11-03T08:13:31.629Z,100.00
2023-11-03T08:14:34.571Z,100.00
2023-11-03T08:15:38.438Z,100.00
2023-11-03T08:16:45.614Z,100.00
2023-11-03T08:17:48.564Z,100.00
2023-11-03T08:18:56.930Z,100.00
2023-11-03T08:20:00.553Z,100.00
2023-11-03T08:21:03.496Z,100.00
2023-11-03T08:22:06.294Z,100.00
2023-11-03T08:23:09.321Z,100.00
2023-11-03T08:24:13.341Z,100.00
2023-11-03T08:25:16.215Z,100.00
2023-11-03T08:26:19.368Z,100.00
2023-11-03T08:27:22.497Z,100.00
2023-11-03T08:28:25.608Z,100.00
2023-11-03T08:29:28.736Z,100.00
2023-11-03T08:30:32.235Z,100.00
2023-11-03T08:31:35.706Z,100.00
2023-11-03T08:32:38.747Z,100.00
2023-11-03T08:33:41.949Z,100.00
2023-11-03T08:34:46.741Z,100.00
2023-11-03T08:35:51.907Z,100.00
2023-11-03T08:36:55.035Z,100.00
2023-11-03T08:37:58.989Z,100.00
2023-11-03T08:39:03.031Z,100.00
2023-11-03T08:40:07.525Z,100.00
2023-11-03T08:41:11.406Z,100.00
2023-11-03T08:42:14.959Z,100.00
2023-11-03T08:43:22.634Z,100.00
2023-11-03T08:44:27.669Z,100.00
2023-11-03T08:45:34.270Z,100.00
2023-11-03T08:46:37.859Z,100.00
2023-11-03T08:47:45.239Z,100.00
2023-11-03T08:48:50.853Z,100.00
2023-11-03T08:49:56.270Z,100.00
2023-11-03T08:51:00.716Z,100.00
2023-11-03T08:52:04.788Z,100.00
2023-11-03T08:53:09.484Z,100.00
2023-11-03T08:54:14.027Z,100.00
2023-11-03T08:55:19.315Z,100.00
2023-11-03T08:56:26.056Z,100.00
2023-11-03T08:57:30.574Z,100.00
2023-11-03T08:58:37.129Z,100.00
2023-11-03T08:59:41.161Z,100.00
2023-11-03T09:00:46.642Z,100.00
2023-11-03T09:01:55.709Z,100.00
2023-11-03T09:03:01.213Z,100.00
2023-11-03T09:04:05.457Z,100.00
2023-11-03T09:05:11.704Z,100.00
2023-11-03T09:06:15.876Z,100.00
2023-11-03T09:07:20.035Z,100.00
2023-11-03T09:08:24.626Z,100.00
2023-11-03T09:09:29.811Z,100.00
2023-11-03T09:10:37.239Z,100.00
2023-11-03T09:11:43.867Z,100.00
2023-11-03T09:12:51.218Z,100.00
2023-11-03T09:13:56.885Z,100.00
2023-11-03T09:15:00.687Z,100.00
2023-11-03T09:16:08.039Z,100.00
2023-11-03T09:17:12.124Z,100.00
2023-11-03T09:18:16.851Z,100.00
2023-11-03T09:19:20.684Z,100.00
2023-11-03T09:20:24.682Z,100.00
2023-11-03T09:21:29.958Z,100.00
2023-11-03T09:22:36.648Z,100.00
2023-11-03T09:23:41.718Z,100.00
2023-11-03T09:24:48.340Z,100.00
2023-11-03T09:25:52.067Z,100.00
2023-11-03T09:27:01.710Z,100.00
2023-11-03T09:28:11.263Z,100.00
2023-11-03T09:29:14.154Z,100.00
2023-11-03T09:30:17.510Z,100.00
2023-11-03T09:31:20.541Z,100.00
2023-11-03T09:32:23.140Z,100.00
2023-11-03T09:33:26.060Z,100.00
2023-11-03T09:34:32.367Z,100.00
2023-11-03T09:35:37.244Z,100.00
2023-11-03T09:36:40.162Z,100.00
2023-11-03T09:37:43.128Z,100.00
2023-11-03T09:38:46.101Z,100.00
2023-11-03T09:39:50.253Z,100.00
2023-11-03T09:40:53.010Z,100.00
2023-11-03T09:42:03.595Z,100.00
2023-11-03T09:43:06.699Z,100.00
2023-11-03T09:44:10.171Z,100.00
2023-11-03T09:45:16.927Z,100.00
2023-11-03T09:46:20.180Z,100.00
2023-11-03T09:47:23.076Z,100.00
2023-11-03T09:48:27.649Z,100.00
2023-11-03T09:49:34.337Z,100.00
2023-11-03T09:50:37.357Z,100.00
2023-11-03T09:51:47.037Z,100.00
2023-11-03T09:52:53.472Z,100.00
2023-11-03T09:53:59.768Z,100.00
2023-11-03T09:55:08.063Z,100.00
2023-11-03T09:56:11.985Z,100.00
2023-11-03T09:57:15.120Z,100.00
2023-11-03T09:58:18.129Z,100.00
2023-11-03T09:59:22.532Z,100.00
2023-11-03T10:00:28.212Z,100.00
2023-11-03T10:01:31.374Z,100.00
2023-11-03T10:02:34.302Z,100.00
2023-11-03T10:03:38.900Z,100.00
2023-11-03T10:04:41.670Z,100.00
2023-11-03T10:05:44.336Z,100.00
2023-11-03T10:06:48.232Z,100.00
2023-11-03T10:07:53.628Z,100.00
2023-11-03T10:09:00.230Z,100.00
2023-11-03T10:10:02.983Z,100.00
2023-11-03T10:11:06.977Z,100.00
2023-11-03T10:12:17.201Z,100.00
2023-11-03T10:13:22.214Z,100.00
2023-11-03T10:14:25.423Z,100.00
2023-11-03T10:15:28.371Z,100.00
2023-11-03T10:16:31.127Z,100.00
2023-11-03T10:17:34.287Z,100.00
2023-11-03T10:18:39.055Z,100.00
2023-11-03T10:19:43.063Z,100.00
2023-11-03T10:20:47.926Z,100.00
2023-11-03T10:21:50.892Z,100.00
2023-11-03T10:22:55.435Z,100.00
2023-11-03T10:23:59.987Z,100.00
2023-11-03T10:25:04.353Z,100.00
2023-11-03T10:26:08.174Z,100.00
2023-11-03T10:27:13.884Z,100.00
2023-11-03T10:28:19.754Z,100.00
2023-11-03T10:29:23.782Z,100.00
2023-11-03T10:30:31.144Z,100.00
2023-11-03T10:31:35.281Z,100.00
2023-11-03T10:32:39.579Z,100.00
2023-11-03T10:33:45.270Z,100.00
2023-11-03T10:34:51.232Z,100.00
2023-11-03T10:35:55.392Z,100.00
2023-11-03T10:37:01.635Z,100.00
2023-11-03T10:38:05.993Z,100.00
2023-11-03T10:39:10.457Z,100.00
2023-11-03T10:40:15.387Z,100.00
2023-11-03T10:41:20.240Z,100.00
2023-11-03T10:42:27.390Z,100.00
2023-11-03T10:43:31.015Z,100.00
2023-11-03T10:44:33.829Z,100.00
2023-11-03T10:45:39.977Z,100.00
2023-11-03T10:46:59.975Z,100.00
2023-11-03T10:48:15.524Z,100.00
2023-11-03T10:49:38.339Z,100.00
2023-11-03T10:50:51.089Z,100.00
2023-11-03T10:52:09.037Z,100.00
2023-11-03T10:53:30.830Z,100.00
2023-11-03T10:54:48.984Z,100.00
2023-11-03T10:56:21.506Z,100.00
2023-11-03T10:58:35.448Z,100.00
2023-11-03T10:59:41.320Z,100.00
2023-11-03T11:00:54.541Z,100.00
2023-11-03T11:02:12.368Z,100.00
2023-11-03T11:03:26.098Z,100.00
2023-11-03T11:05:16.265Z,100.00
2023-11-03T11:06:24.804Z,100.00
2023-11-03T11:07:32.801Z,100.00
2023-11-03T11:08:40.263Z,100.00
2023-11-03T11:09:45.368Z,100.00
2023-11-03T11:10:48.307Z,100.00
2023-11-03T11:11:52.279Z,100.00
2023-11-03T11:12:55.830Z,100.00
2023-11-03T11:14:27.249Z,100.00
2023-11-03T11:15:29.841Z,100.00
2023-11-03T11:16:32.453Z,100.00
2023-11-03T11:17:36.312Z,100.00
2023-11-03T11:18:58.077Z,100.00
2023-11-03T11:20:05.723Z,100.00
2023-11-03T11:21:12.691Z,100.00
2023-11-03T11:22:20.437Z,100.00
2023-11-03T11:23:24.699Z,100.00
2023-11-03T11:24:34.398Z,100.00
2023-11-03T11:25:38.106Z,100.00
2023-11-03T11:26:41.453Z,100.00
2023-11-03T11:27:50.239Z,100.00
2023-11-03T11:28:53.254Z,100.00
2023-11-03T11:30:11.511Z,100.00
2023-11-03T11:31:26.733Z,100.00
2023-11-03T11:32:29.856Z,100.00
2023-11-03T11:34:05.852Z,100.00
2023-11-03T11:35:09.999Z,100.00
2023-11-03T11:36:22.028Z,100.00
2023-11-03T11:37:30.725Z,100.00
2023-11-03T11:38:33.561Z,100.00
2023-11-03T11:39:36.393Z,100.00
2023-11-03T11:40:39.109Z,100.00
2023-11-03T11:41:52.765Z,100.00
2023-11-03T11:43:05.685Z,100.00
2023-11-03T11:44:35.181Z,100.00
2023-11-03T11:45:38.947Z,100.00
2023-11-03T11:46:42.962Z,100.00
2023-11-03T11:47:47.646Z,100.00
2023-11-03T11:48:51.750Z,100.00
2023-11-03T11:49:59.171Z,100.00
2023-11-03T11:51:04.311Z,100.00
2023-11-03T11:52:08.846Z,100.00
2023-11-03T11:53:11.863Z,100.00
2023-11-03T11:54:17.857Z,100.00
2023-11-03T11:55:21.113Z,100.00
2023-11-03T11:56:25.334Z,100.00
2023-11-03T11:57:31.745Z,100.00
2023-11-03T11:58:34.976Z,100.00
2023-11-03T11:59:42.193Z,100.00
2023-11-03T12:00:44.773Z,100.00
2023-11-03T12:01:48.365Z,100.00
2023-11-03T12:02:55.270Z,100.00
2023-11-03T12:04:03.844Z,100.00
2023-11-03T12:05:07.563Z,100.00
2023-11-03T12:06:10.507Z,100.00
2023-11-03T12:07:13.230Z,100.00
2023-11-03T12:08:16.044Z,100.00
2023-11-03T12:09:19.186Z,100.00
2023-11-03T12:10:22.204Z,100.00
2023-11-03T12:11:25.818Z,100.00
2023-11-03T12:12:29.302Z,100.00
2023-11-03T12:13:32.000Z,100.00
2023-11-03T12:14:34.694Z,100.00
2023-11-03T12:15:37.663Z,100.00
2023-11-03T12:16:40.371Z,100.00
2023-11-03T12:17:44.060Z,100.00
2023-11-03T12:18:46.873Z,100.00
2023-11-03T12:19:54.162Z,100.00
2023-11-03T12:21:03.727Z,100.00
2023-11-03T12:22:06.510Z,100.00
2023-11-03T12:23:09.321Z,100.00
2023-11-03T12:24:14.512Z,100.00
2023-11-03T12:25:17.657Z,100.00
2023-11-03T12:26:20.549Z,100.00
2023-11-03T12:27:24.510Z,100.00
2023-11-03T12:28:27.641Z,100.00
2023-11-03T12:29:32.922Z,100.00
2023-11-03T12:30:50.574Z,100.00
2023-11-03T12:31:54.019Z,100.00
2023-11-03T12:32:59.488Z,100.00
2023-11-03T12:34:04.926Z,100.00
2023-11-03T12:35:12.232Z,100.00
2023-11-03T12:36:15.968Z,100.00
2023-11-03T12:37:19.112Z,100.00
2023-11-03T12:38:22.749Z,100.00
2023-11-03T12:39:26.691Z,100.00
2023-11-03T12:40:29.844Z,100.00
2023-11-03T12:41:32.797Z,100.00
2023-11-03T12:42:43.661Z,100.00
2023-11-03T12:43:49.129Z,100.00
2023-11-03T12:45:04.446Z,100.00
2023-11-03T12:46:11.890Z,100.00
2023-11-03T12:47:15.219Z,100.00
2023-11-03T12:48:23.022Z,100.00
2023-11-03T12:49:26.260Z,100.00
2023-11-03T12:50:30.139Z,100.00
2023-11-03T12:51:34.174Z,100.00
2023-11-03T12:52:37.354Z,100.00
2023-11-03T12:53:49.899Z,100.00
2023-11-03T12:54:57.168Z,100.00
2023-11-03T12:56:07.122Z,100.00
2023-11-03T12:57:10.128Z,100.00
2023-11-03T12:58:19.132Z,100.00
2023-11-03T12:59:23.484Z,100.00
2023-11-03T13:00:33.469Z,100.00
2023-11-03T13:01:36.578Z,100.00
2023-11-03T13:03:44.602Z,100.00
2023-11-03T13:04:47.525Z,100.00
2023-11-03T13:05:51.113Z,100.00
2023-11-03T13:06:59.260Z,100.00
2023-11-03T13:08:04.521Z,100.00
2023-11-03T13:09:15.185Z,100.00
2023-11-03T13:10:19.173Z,100.00
2023-11-03T13:11:22.617Z,100.00
2023-11-03T13:12:26.049Z,100.00
2023-11-03T13:13:29.671Z,100.00
2023-11-03T13:14:32.977Z,100.00
2023-11-03T13:15:36.389Z,100.00
2023-11-03T13:16:40.695Z,100.00
2023-11-03T13:17:44.297Z,100.00
2023-11-03T13:18:47.946Z,100.00
2023-11-03T13:19:51.157Z,100.00
2023-11-03T13:20:54.345Z,100.00
2023-11-03T13:21:58.562Z,100.00
2023-11-03T13:23:03.687Z,100.00
2023-11-03T13:24:10.127Z,100.00
2023-11-03T13:25:14.569Z,100.00
2023-11-03T13:26:18.827Z,100.00
2023-11-03T13:27:22.226Z,100.00
2023-11-03T13:28:27.500Z,100.00
2023-11-03T13:29:32.108Z,100.00
2023-11-03T13:30:35.520Z,100.00
2023-11-03T13:31:39.905Z,100.00
2023-11-03T13:32:43.690Z,100.00
2023-11-03T13:33:47.653Z,100.00
2023-11-03T13:34:51.391Z,100.00
2023-11-03T13:35:54.559Z,100.00
2023-11-03T13:36:57.346Z,100.00
2023-11-03T13:38:01.264Z,100.00
2023-11-03T13:39:05.013Z,100.00
2023-11-03T13:40:08.730Z,100.00
2023-11-03T13:41:13.770Z,100.00